sensor_id;sensor_type;location;lat;lon;timestamp;temperature;humidity
8820;DHT22;4446;50.876;4.736;2023-03-03T00:00:43;0.70;99.90
8820;DHT22;4446;50.876;4.736;2023-03-03T00:03:14;0.70;99.90
8820;DHT22;4446;50.876;4.736;2023-03-03T00:05:41;0.60;99.90
8820;DHT22;4446;50.876;4.736;2023-03-03T00:08:08;0.50;99.90
8820;DHT22;4446;50.876;4.736;2023-03-03T00:10:36;0.50;99.90
8820;DHT22;4446;50.876;4.736;2023-03-03T00:13:06;0.50;99.90
8820;DHT22;4446;50.876;4.736;2023-03-03T00:15:38;0.50;99.90
8820;DHT22;4446;50.876;4.736;2023-03-03T00:18:16;0.50;99.90
8820;DHT22;4446;50.876;4.736;2023-03-03T00:20:48;0.40;99.90
8820;DHT22;4446;50.876;4.736;2023-03-03T00:23:35;0.50;99.90
8820;DHT22;4446;50.876;4.736;2023-03-03T00:26:12;0.60;99.90
8820;DHT22;4446;50.876;4.736;2023-03-03T00:28:45;0.80;99.90
8820;DHT22;4446;50.876;4.736;2023-03-03T00:31:16;0.60;99.90
8820;DHT22;4446;50.876;4.736;2023-03-03T00:33:47;0.60;99.90
8820;DHT22;4446;50.876;4.736;2023-03-03T00:36:30;0.60;99.90
8820;DHT22;4446;50.876;4.736;2023-03-03T00:39:16;0.50;99.90
8820;DHT22;4446;50.876;4.736;2023-03-03T00:41:44;0.40;99.90
8820;DHT22;4446;50.876;4.736;2023-03-03T00:44:32;0.30;99.90
8820;DHT22;4446;50.876;4.736;2023-03-03T00:47:23;0.20;99.90
8820;DHT22;4446;50.876;4.736;2023-03-03T00:49:51;0.10;99.90
8820;DHT22;4446;50.876;4.736;2023-03-03T00:52:18;0.20;99.90
8820;DHT22;4446;50.876;4.736;2023-03-03T00:54:45;0.20;99.90
8820;DHT22;4446;50.876;4.736;2023-03-03T00:57:12;0.20;99.90
8820;DHT22;4446;50.876;4.736;2023-03-03T00:59:40;0.30;99.90
8820;DHT22;4446;50.876;4.736;2023-03-03T01:02:07;0.30;99.90
8820;DHT22;4446;50.876;4.736;2023-03-03T01:04:34;0.30;99.90
8820;DHT22;4446;50.876;4.736;2023-03-03T01:07:02;0.40;99.90
8820;DHT22;4446;50.876;4.736;2023-03-03T01:09:28;0.30;99.90
8820;DHT22;4446;50.876;4.736;2023-03-03T01:11:55;0.20;99.90
8820;DHT22;4446;50.876;4.736;2023-03-03T01:14:22;0.10;99.90
8820;DHT22;4446;50.876;4.736;2023-03-03T01:16:51;0.10;99.90
8820;DHT22;4446;50.876;4.736;2023-03-03T01:19:18;0.00;99.90
8820;DHT22;4446;50.876;4.736;2023-03-03T01:21:44;-0.10;99.90
8820;DHT22;4446;50.876;4.736;2023-03-03T01:24:11;-0.10;99.90
8820;DHT22;4446;50.876;4.736;2023-03-03T01:26:38;-0.20;99.90
8820;DHT22;4446;50.876;4.736;2023-03-03T01:29:05;-0.30;99.90
8820;DHT22;4446;50.876;4.736;2023-03-03T01:31:32;-0.40;99.90
8820;DHT22;4446;50.876;4.736;2023-03-03T01:34:00;-0.40;99.90
8820;DHT22;4446;50.876;4.736;2023-03-03T01:36:28;-0.50;99.90
8820;DHT22;4446;50.876;4.736;2023-03-03T01:38:55;-0.50;99.90
8820;DHT22;4446;50.876;4.736;2023-03-03T01:41:22;-0.50;99.90
8820;DHT22;4446;50.876;4.736;2023-03-03T01:43:49;-0.50;99.90
8820;DHT22;4446;50.876;4.736;2023-03-03T01:46:40;-0.50;99.90
8820;DHT22;4446;50.876;4.736;2023-03-03T01:49:15;-0.50;99.90
8820;DHT22;4446;50.876;4.736;2023-03-03T01:51:48;-0.50;99.90
8820;DHT22;4446;50.876;4.736;2023-03-03T01:54:19;-0.50;99.90
8820;DHT22;4446;50.876;4.736;2023-03-03T01:56:48;-0.50;99.90
8820;DHT22;4446;50.876;4.736;2023-03-03T01:59:18;-0.60;99.90
8820;DHT22;4446;50.876;4.736;2023-03-03T02:01:46;-0.60;99.90
8820;DHT22;4446;50.876;4.736;2023-03-03T02:04:15;-0.70;99.90
8820;DHT22;4446;50.876;4.736;2023-03-03T02:06:45;-0.80;99.90
8820;DHT22;4446;50.876;4.736;2023-03-03T02:09:18;-0.90;99.90
8820;DHT22;4446;50.876;4.736;2023-03-03T02:11:50;-1.00;99.90
8820;DHT22;4446;50.876;4.736;2023-03-03T02:14:18;-1.10;99.90
8820;DHT22;4446;50.876;4.736;2023-03-03T02:16:45;-1.10;99.90
8820;DHT22;4446;50.876;4.736;2023-03-03T02:19:19;-1.20;99.90
8820;DHT22;4446;50.876;4.736;2023-03-03T02:21:47;-1.30;99.90
8820;DHT22;4446;50.876;4.736;2023-03-03T02:24:18;-1.10;99.90
8820;DHT22;4446;50.876;4.736;2023-03-03T02:26:49;-1.00;99.90
8820;DHT22;4446;50.876;4.736;2023-03-03T02:29:16;-1.00;99.90
8820;DHT22;4446;50.876;4.736;2023-03-03T02:31:43;-1.10;99.90
8820;DHT22;4446;50.876;4.736;2023-03-03T02:34:10;-1.10;99.90
8820;DHT22;4446;50.876;4.736;2023-03-03T02:36:38;-1.20;99.90
8820;DHT22;4446;50.876;4.736;2023-03-03T02:39:08;-1.20;99.90
8820;DHT22;4446;50.876;4.736;2023-03-03T02:41:39;-1.20;99.90
8820;DHT22;4446;50.876;4.736;2023-03-03T02:44:11;-1.30;99.90
8820;DHT22;4446;50.876;4.736;2023-03-03T02:46:41;-1.30;99.90
8820;DHT22;4446;50.876;4.736;2023-03-03T02:49:10;-1.30;99.90
8820;DHT22;4446;50.876;4.736;2023-03-03T02:51:38;-1.40;99.90
8820;DHT22;4446;50.876;4.736;2023-03-03T02:54:06;-1.40;99.90
8820;DHT22;4446;50.876;4.736;2023-03-03T02:56:33;-1.40;99.90
8820;DHT22;4446;50.876;4.736;2023-03-03T02:59:00;-1.50;99.90
8820;DHT22;4446;50.876;4.736;2023-03-03T03:01:28;-1.50;99.90
8820;DHT22;4446;50.876;4.736;2023-03-03T03:03:56;-1.50;99.90
8820;DHT22;4446;50.876;4.736;2023-03-03T03:06:24;-1.60;99.90
8820;DHT22;4446;50.876;4.736;2023-03-03T03:08:51;-1.70;99.90
8820;DHT22;4446;50.876;4.736;2023-03-03T03:11:18;-1.70;99.90
8820;DHT22;4446;50.876;4.736;2023-03-03T03:13:44;-1.70;99.90
8820;DHT22;4446;50.876;4.736;2023-03-03T03:16:11;-1.60;99.90
8820;DHT22;4446;50.876;4.736;2023-03-03T03:18:39;-1.50;99.90
8820;DHT22;4446;50.876;4.736;2023-03-03T03:21:08;-1.30;99.90
8820;DHT22;4446;50.876;4.736;2023-03-03T03:23:35;-1.20;99.90
8820;DHT22;4446;50.876;4.736;2023-03-03T03:26:02;-0.90;99.90
8820;DHT22;4446;50.876;4.736;2023-03-03T03:28:29;-0.80;99.90
8820;DHT22;4446;50.876;4.736;2023-03-03T03:30:56;-0.60;99.90
8820;DHT22;4446;50.876;4.736;2023-03-03T03:33:23;-0.40;99.90
8820;DHT22;4446;50.876;4.736;2023-03-03T03:35:54;-0.30;99.90
8820;DHT22;4446;50.876;4.736;2023-03-03T03:38:21;-0.20;99.90
8820;DHT22;4446;50.876;4.736;2023-03-03T03:40:48;0.00;99.90
8820;DHT22;4446;50.876;4.736;2023-03-03T03:43:15;0.10;99.90
8820;DHT22;4446;50.876;4.736;2023-03-03T03:45:42;0.20;99.90
8820;DHT22;4446;50.876;4.736;2023-03-03T03:48:09;0.30;99.90
8820;DHT22;4446;50.876;4.736;2023-03-03T03:50:36;0.30;99.90
8820;DHT22;4446;50.876;4.736;2023-03-03T03:53:05;0.30;99.90
8820;DHT22;4446;50.876;4.736;2023-03-03T03:55:32;0.30;99.90
8820;DHT22;4446;50.876;4.736;2023-03-03T03:57:59;0.30;99.90
8820;DHT22;4446;50.876;4.736;2023-03-03T04:00:26;0.40;99.90
8820;DHT22;4446;50.876;4.736;2023-03-03T04:02:53;0.40;99.90
8820;DHT22;4446;50.876;4.736;2023-03-03T04:05:20;0.30;99.90
8820;DHT22;4446;50.876;4.736;2023-03-03T04:07:47;0.40;99.90
8820;DHT22;4446;50.876;4.736;2023-03-03T04:10:15;0.40;99.90
8820;DHT22;4446;50.876;4.736;2023-03-03T04:12:42;0.50;99.90
8820;DHT22;4446;50.876;4.736;2023-03-03T04:15:11;0.40;99.90
8820;DHT22;4446;50.876;4.736;2023-03-03T04:17:38;0.40;99.90
8820;DHT22;4446;50.876;4.736;2023-03-03T04:20:07;0.40;99.90
8820;DHT22;4446;50.876;4.736;2023-03-03T04:22:34;0.40;99.90
8820;DHT22;4446;50.876;4.736;2023-03-03T04:25:01;0.40;99.90
8820;DHT22;4446;50.876;4.736;2023-03-03T04:27:31;0.40;99.90
8820;DHT22;4446;50.876;4.736;2023-03-03T04:29:58;0.40;99.90
8820;DHT22;4446;50.876;4.736;2023-03-03T04:32:25;0.30;99.90
8820;DHT22;4446;50.876;4.736;2023-03-03T04:34:52;0.30;99.90
8820;DHT22;4446;50.876;4.736;2023-03-03T04:37:19;0.30;99.90
8820;DHT22;4446;50.876;4.736;2023-03-03T04:39:45;0.30;99.90
8820;DHT22;4446;50.876;4.736;2023-03-03T04:42:12;0.20;99.90
8820;DHT22;4446;50.876;4.736;2023-03-03T04:44:41;0.20;99.90
8820;DHT22;4446;50.876;4.736;2023-03-03T04:47:08;0.20;99.90
8820;DHT22;4446;50.876;4.736;2023-03-03T04:49:35;0.30;99.90
8820;DHT22;4446;50.876;4.736;2023-03-03T04:52:03;0.30;99.90
8820;DHT22;4446;50.876;4.736;2023-03-03T04:54:30;0.30;99.90
8820;DHT22;4446;50.876;4.736;2023-03-03T04:56:57;0.30;99.90
8820;DHT22;4446;50.876;4.736;2023-03-03T04:59:24;0.30;99.90
8820;DHT22;4446;50.876;4.736;2023-03-03T05:01:52;0.20;99.90
8820;DHT22;4446;50.876;4.736;2023-03-03T05:04:19;0.20;99.90
8820;DHT22;4446;50.876;4.736;2023-03-03T05:06:46;0.20;99.90
8820;DHT22;4446;50.876;4.736;2023-03-03T05:09:12;0.20;99.90
8820;DHT22;4446;50.876;4.736;2023-03-03T05:11:39;0.30;99.90
8820;DHT22;4446;50.876;4.736;2023-03-03T05:14:06;0.30;99.90
8820;DHT22;4446;50.876;4.736;2023-03-03T05:16:33;0.30;99.90
8820;DHT22;4446;50.876;4.736;2023-03-03T05:19:01;0.30;99.90
8820;DHT22;4446;50.876;4.736;2023-03-03T05:21:28;0.30;99.90
8820;DHT22;4446;50.876;4.736;2023-03-03T05:23:55;0.30;99.90
8820;DHT22;4446;50.876;4.736;2023-03-03T05:26:22;0.40;99.90
8820;DHT22;4446;50.876;4.736;2023-03-03T05:28:49;0.40;99.90
8820;DHT22;4446;50.876;4.736;2023-03-03T05:31:16;0.40;99.90
8820;DHT22;4446;50.876;4.736;2023-03-03T05:33:43;0.40;99.90
8820;DHT22;4446;50.876;4.736;2023-03-03T05:36:11;0.40;99.90
8820;DHT22;4446;50.876;4.736;2023-03-03T05:38:38;0.50;99.90
8820;DHT22;4446;50.876;4.736;2023-03-03T05:41:05;0.40;99.90
8820;DHT22;4446;50.876;4.736;2023-03-03T05:43:32;0.40;99.90
8820;DHT22;4446;50.876;4.736;2023-03-03T05:45:59;0.40;99.90
8820;DHT22;4446;50.876;4.736;2023-03-03T05:48:26;0.40;99.90
8820;DHT22;4446;50.876;4.736;2023-03-03T05:50:53;0.30;99.90
8820;DHT22;4446;50.876;4.736;2023-03-03T05:53:21;0.30;99.90
8820;DHT22;4446;50.876;4.736;2023-03-03T05:55:48;0.40;99.90
8820;DHT22;4446;50.876;4.736;2023-03-03T05:58:15;0.40;99.90
8820;DHT22;4446;50.876;4.736;2023-03-03T06:00:42;0.40;99.90
8820;DHT22;4446;50.876;4.736;2023-03-03T06:03:09;0.40;99.90
8820;DHT22;4446;50.876;4.736;2023-03-03T06:05:36;0.40;99.90
8820;DHT22;4446;50.876;4.736;2023-03-03T06:08:03;0.30;99.90
8820;DHT22;4446;50.876;4.736;2023-03-03T06:10:31;0.40;99.90
8820;DHT22;4446;50.876;4.736;2023-03-03T06:12:58;0.40;99.90
8820;DHT22;4446;50.876;4.736;2023-03-03T06:15:25;0.30;99.90
8820;DHT22;4446;50.876;4.736;2023-03-03T06:17:52;0.30;99.90
8820;DHT22;4446;50.876;4.736;2023-03-03T06:20:19;0.30;99.90
8820;DHT22;4446;50.876;4.736;2023-03-03T06:22:46;0.30;99.90
8820;DHT22;4446;50.876;4.736;2023-03-03T06:25:12;0.30;99.90
8820;DHT22;4446;50.876;4.736;2023-03-03T06:27:41;0.30;99.90
8820;DHT22;4446;50.876;4.736;2023-03-03T06:30:09;0.30;99.90
8820;DHT22;4446;50.876;4.736;2023-03-03T06:32:37;0.30;99.90
8820;DHT22;4446;50.876;4.736;2023-03-03T06:35:05;0.30;99.90
8820;DHT22;4446;50.876;4.736;2023-03-03T06:37:31;0.30;99.90
8820;DHT22;4446;50.876;4.736;2023-03-03T06:39:58;0.30;99.90
8820;DHT22;4446;50.876;4.736;2023-03-03T06:42:25;0.20;99.90
8820;DHT22;4446;50.876;4.736;2023-03-03T06:44:53;0.30;99.90
8820;DHT22;4446;50.876;4.736;2023-03-03T06:47:20;0.20;99.90
8820;DHT22;4446;50.876;4.736;2023-03-03T06:49:47;0.20;99.90
8820;DHT22;4446;50.876;4.736;2023-03-03T06:52:19;0.30;99.90
8820;DHT22;4446;50.876;4.736;2023-03-03T06:54:48;0.30;99.90
8820;DHT22;4446;50.876;4.736;2023-03-03T06:57:17;0.20;99.90
8820;DHT22;4446;50.876;4.736;2023-03-03T06:59:48;0.30;99.90
8820;DHT22;4446;50.876;4.736;2023-03-03T07:02:18;0.30;99.90
8820;DHT22;4446;50.876;4.736;2023-03-03T07:04:48;0.30;99.90
8820;DHT22;4446;50.876;4.736;2023-03-03T07:07:17;0.30;99.90
8820;DHT22;4446;50.876;4.736;2023-03-03T07:09:48;0.30;99.90
8820;DHT22;4446;50.876;4.736;2023-03-03T07:12:17;0.30;99.90
8820;DHT22;4446;50.876;4.736;2023-03-03T07:14:45;0.30;99.90
8820;DHT22;4446;50.876;4.736;2023-03-03T07:17:18;0.20;99.90
8820;DHT22;4446;50.876;4.736;2023-03-03T07:19:46;0.20;99.90
8820;DHT22;4446;50.876;4.736;2023-03-03T07:22:15;0.30;99.90
8820;DHT22;4446;50.876;4.736;2023-03-03T07:24:44;0.40;99.90
8820;DHT22;4446;50.876;4.736;2023-03-03T07:27:19;0.40;99.90
8820;DHT22;4446;50.876;4.736;2023-03-03T07:29:48;0.40;99.90
8820;DHT22;4446;50.876;4.736;2023-03-03T07:32:24;0.40;99.90
8820;DHT22;4446;50.876;4.736;2023-03-03T07:34:52;0.40;99.90
8820;DHT22;4446;50.876;4.736;2023-03-03T07:37:28;0.40;99.90
8820;DHT22;4446;50.876;4.736;2023-03-03T07:39:56;0.50;99.90
8820;DHT22;4446;50.876;4.736;2023-03-03T07:42:26;0.50;99.90
8820;DHT22;4446;50.876;4.736;2023-03-03T07:44:55;0.50;99.90
8820;DHT22;4446;50.876;4.736;2023-03-03T07:47:26;0.60;99.90
8820;DHT22;4446;50.876;4.736;2023-03-03T07:49:55;0.70;99.90
8820;DHT22;4446;50.876;4.736;2023-03-03T07:52:30;0.70;99.90
8820;DHT22;4446;50.876;4.736;2023-03-03T07:55:00;0.70;99.90
8820;DHT22;4446;50.876;4.736;2023-03-03T07:57:34;0.60;99.90
8820;DHT22;4446;50.876;4.736;2023-03-03T08:03:13;0.70;99.90
8820;DHT22;4446;50.876;4.736;2023-03-03T08:05:42;0.70;99.90
8820;DHT22;4446;50.876;4.736;2023-03-03T08:08:14;0.70;99.90
8820;DHT22;4446;50.876;4.736;2023-03-03T08:10:47;0.80;99.90
8820;DHT22;4446;50.876;4.736;2023-03-03T08:13:17;0.90;99.90
8820;DHT22;4446;50.876;4.736;2023-03-03T08:15:45;0.80;99.90
8820;DHT22;4446;50.876;4.736;2023-03-03T08:18:22;0.80;99.90
8820;DHT22;4446;50.876;4.736;2023-03-03T08:20:52;1.00;99.90
8820;DHT22;4446;50.876;4.736;2023-03-03T08:23:20;0.90;99.90
8820;DHT22;4446;50.876;4.736;2023-03-03T08:25:49;0.90;99.90
8820;DHT22;4446;50.876;4.736;2023-03-03T08:28:16;1.00;99.90
8820;DHT22;4446;50.876;4.736;2023-03-03T08:30:45;1.10;99.90
8820;DHT22;4446;50.876;4.736;2023-03-03T08:33:12;1.10;99.90
8820;DHT22;4446;50.876;4.736;2023-03-03T08:35:41;1.10;99.90
8820;DHT22;4446;50.876;4.736;2023-03-03T08:38:09;1.10;99.90
8820;DHT22;4446;50.876;4.736;2023-03-03T08:40:36;1.20;99.90
8820;DHT22;4446;50.876;4.736;2023-03-03T08:43:04;1.20;99.90
8820;DHT22;4446;50.876;4.736;2023-03-03T08:45:31;1.20;99.90
8820;DHT22;4446;50.876;4.736;2023-03-03T08:47:58;1.20;99.90
8820;DHT22;4446;50.876;4.736;2023-03-03T08:50:26;1.30;99.90
8820;DHT22;4446;50.876;4.736;2023-03-03T08:52:55;1.30;99.90
8820;DHT22;4446;50.876;4.736;2023-03-03T08:55:22;1.30;99.90
8820;DHT22;4446;50.876;4.736;2023-03-03T08:57:49;1.30;99.90
8820;DHT22;4446;50.876;4.736;2023-03-03T09:00:17;1.30;99.90
8820;DHT22;4446;50.876;4.736;2023-03-03T09:02:44;1.40;99.90
8820;DHT22;4446;50.876;4.736;2023-03-03T09:05:12;1.50;99.90
8820;DHT22;4446;50.876;4.736;2023-03-03T09:07:39;1.60;99.90
8820;DHT22;4446;50.876;4.736;2023-03-03T09:10:10;1.60;99.90
8820;DHT22;4446;50.876;4.736;2023-03-03T09:12:40;1.60;99.90
8820;DHT22;4446;50.876;4.736;2023-03-03T09:15:20;1.60;99.90
8820;DHT22;4446;50.876;4.736;2023-03-03T09:17:49;1.60;99.90
8820;DHT22;4446;50.876;4.736;2023-03-03T09:20:34;1.60;99.90
8820;DHT22;4446;50.876;4.736;2023-03-03T09:23:26;1.60;99.90
8820;DHT22;4446;50.876;4.736;2023-03-03T09:25:56;1.60;99.90
8820;DHT22;4446;50.876;4.736;2023-03-03T09:28:24;1.70;99.90
8820;DHT22;4446;50.876;4.736;2023-03-03T09:30:53;1.70;99.90
8820;DHT22;4446;50.876;4.736;2023-03-03T09:33:26;1.80;99.90
8820;DHT22;4446;50.876;4.736;2023-03-03T09:35:59;1.80;99.90
8820;DHT22;4446;50.876;4.736;2023-03-03T09:38:29;1.80;99.90
8820;DHT22;4446;50.876;4.736;2023-03-03T09:41:28;2.00;99.90
8820;DHT22;4446;50.876;4.736;2023-03-03T09:44:14;2.00;99.90
8820;DHT22;4446;50.876;4.736;2023-03-03T09:47:01;2.20;99.90
8820;DHT22;4446;50.876;4.736;2023-03-03T09:49:35;2.20;99.90
8820;DHT22;4446;50.876;4.736;2023-03-03T09:52:21;2.30;99.90
8820;DHT22;4446;50.876;4.736;2023-03-03T09:55:02;2.20;99.90
8820;DHT22;4446;50.876;4.736;2023-03-03T09:57:52;2.30;99.90
8820;DHT22;4446;50.876;4.736;2023-03-03T10:00:33;2.30;99.90
8820;DHT22;4446;50.876;4.736;2023-03-03T10:03:26;2.40;99.90
8820;DHT22;4446;50.876;4.736;2023-03-03T10:05:59;2.50;99.90
8820;DHT22;4446;50.876;4.736;2023-03-03T10:08:48;2.70;99.90
8820;DHT22;4446;50.876;4.736;2023-03-03T10:11:20;2.70;99.90
8820;DHT22;4446;50.876;4.736;2023-03-03T10:14:11;2.70;99.90
8820;DHT22;4446;50.876;4.736;2023-03-03T10:16:54;2.60;99.90
8820;DHT22;4446;50.876;4.736;2023-03-03T10:19:36;2.60;99.90
8820;DHT22;4446;50.876;4.736;2023-03-03T10:22:17;2.60;99.90
8820;DHT22;4446;50.876;4.736;2023-03-03T10:24:59;2.70;99.90
8820;DHT22;4446;50.876;4.736;2023-03-03T10:27:39;2.70;99.90
8820;DHT22;4446;50.876;4.736;2023-03-03T10:30:18;2.80;99.90
8820;DHT22;4446;50.876;4.736;2023-03-03T10:32:50;2.80;99.90
8820;DHT22;4446;50.876;4.736;2023-03-03T10:35:31;3.00;99.90
8820;DHT22;4446;50.876;4.736;2023-03-03T10:38:12;3.00;99.90
8820;DHT22;4446;50.876;4.736;2023-03-03T10:40:45;3.20;99.90
8820;DHT22;4446;50.876;4.736;2023-03-03T10:43:24;3.20;99.90
8820;DHT22;4446;50.876;4.736;2023-03-03T10:46:19;3.20;99.90
8820;DHT22;4446;50.876;4.736;2023-03-03T10:49:06;3.20;99.90
8820;DHT22;4446;50.876;4.736;2023-03-03T10:51:52;3.30;99.90
8820;DHT22;4446;50.876;4.736;2023-03-03T10:54:34;3.40;99.90
8820;DHT22;4446;50.876;4.736;2023-03-03T10:57:12;3.50;99.90
8820;DHT22;4446;50.876;4.736;2023-03-03T10:59:52;3.60;99.90
8820;DHT22;4446;50.876;4.736;2023-03-03T11:02:30;3.70;99.90
8820;DHT22;4446;50.876;4.736;2023-03-03T11:05:18;3.70;99.90
8820;DHT22;4446;50.876;4.736;2023-03-03T11:07:50;3.60;99.90
8820;DHT22;4446;50.876;4.736;2023-03-03T11:10:25;3.70;99.90
8820;DHT22;4446;50.876;4.736;2023-03-03T11:13:00;3.70;99.90
8820;DHT22;4446;50.876;4.736;2023-03-03T11:15:43;3.70;99.90
8820;DHT22;4446;50.876;4.736;2023-03-03T11:18:34;3.70;99.90
8820;DHT22;4446;50.876;4.736;2023-03-03T11:21:12;3.80;99.90
8820;DHT22;4446;50.876;4.736;2023-03-03T11:23:57;3.90;99.90
8820;DHT22;4446;50.876;4.736;2023-03-03T11:26:47;4.10;99.90
8820;DHT22;4446;50.876;4.736;2023-03-03T11:32:36;4.10;99.90
8820;DHT22;4446;50.876;4.736;2023-03-03T11:35:18;4.00;99.90
8820;DHT22;4446;50.876;4.736;2023-03-03T11:37:53;4.00;99.90
8820;DHT22;4446;50.876;4.736;2023-03-03T11:40:25;4.10;99.90
8820;DHT22;4446;50.876;4.736;2023-03-03T11:43:00;4.30;99.90
8820;DHT22;4446;50.876;4.736;2023-03-03T11:45:33;4.40;99.90
8820;DHT22;4446;50.876;4.736;2023-03-03T11:48:10;4.50;99.90
8820;DHT22;4446;50.876;4.736;2023-03-03T11:50:44;4.60;99.90
8820;DHT22;4446;50.876;4.736;2023-03-03T11:53:26;4.70;99.90
8820;DHT22;4446;50.876;4.736;2023-03-03T11:55:56;4.80;99.90
8820;DHT22;4446;50.876;4.736;2023-03-03T11:58:29;4.90;99.90
8820;DHT22;4446;50.876;4.736;2023-03-03T12:00:59;4.90;99.90
8820;DHT22;4446;50.876;4.736;2023-03-03T12:03:31;5.10;99.90
8820;DHT22;4446;50.876;4.736;2023-03-03T12:06:11;5.20;99.90
8820;DHT22;4446;50.876;4.736;2023-03-03T12:09:02;5.20;99.90
8820;DHT22;4446;50.876;4.736;2023-03-03T12:11:42;5.30;99.90
8820;DHT22;4446;50.876;4.736;2023-03-03T12:14:21;5.40;99.90
8820;DHT22;4446;50.876;4.736;2023-03-03T12:16:55;5.40;99.90
8820;DHT22;4446;50.876;4.736;2023-03-03T12:19:34;5.60;99.90
8820;DHT22;4446;50.876;4.736;2023-03-03T12:22:14;5.50;99.90
8820;DHT22;4446;50.876;4.736;2023-03-03T12:24:52;5.40;99.90
8820;DHT22;4446;50.876;4.736;2023-03-03T12:27:24;5.50;99.90
8820;DHT22;4446;50.876;4.736;2023-03-03T12:29:58;5.70;99.90
8820;DHT22;4446;50.876;4.736;2023-03-03T12:32:48;5.70;99.90
8820;DHT22;4446;50.876;4.736;2023-03-03T12:35:27;5.70;99.90
8820;DHT22;4446;50.876;4.736;2023-03-03T12:38:03;5.80;99.90
8820;DHT22;4446;50.876;4.736;2023-03-03T12:40:32;5.90;99.90
8820;DHT22;4446;50.876;4.736;2023-03-03T12:43:08;5.90;99.90
8820;DHT22;4446;50.876;4.736;2023-03-03T12:45:46;5.90;99.90
8820;DHT22;4446;50.876;4.736;2023-03-03T12:48:21;5.80;99.90
8820;DHT22;4446;50.876;4.736;2023-03-03T12:50:57;5.70;99.90
8820;DHT22;4446;50.876;4.736;2023-03-03T12:53:39;5.70;99.90
8820;DHT22;4446;50.876;4.736;2023-03-03T12:56:10;5.90;99.90
8820;DHT22;4446;50.876;4.736;2023-03-03T12:58:44;6.10;99.90
8820;DHT22;4446;50.876;4.736;2023-03-03T13:01:26;6.10;99.90
8820;DHT22;4446;50.876;4.736;2023-03-03T13:04:02;6.00;99.90
8820;DHT22;4446;50.876;4.736;2023-03-03T13:06:32;6.20;99.90
8820;DHT22;4446;50.876;4.736;2023-03-03T13:09:14;6.20;99.90
8820;DHT22;4446;50.876;4.736;2023-03-03T13:11:54;6.10;99.90
8820;DHT22;4446;50.876;4.736;2023-03-03T13:14:29;6.30;99.90
8820;DHT22;4446;50.876;4.736;2023-03-03T13:17:05;6.30;99.90
8820;DHT22;4446;50.876;4.736;2023-03-03T13:19:38;6.30;99.90
8820;DHT22;4446;50.876;4.736;2023-03-03T13:22:10;6.10;99.90
8820;DHT22;4446;50.876;4.736;2023-03-03T13:24:50;6.10;99.90
8820;DHT22;4446;50.876;4.736;2023-03-03T13:27:22;6.10;99.90
8820;DHT22;4446;50.876;4.736;2023-03-03T13:29:56;6.10;99.90
8820;DHT22;4446;50.876;4.736;2023-03-03T13:32:32;6.20;99.90
8820;DHT22;4446;50.876;4.736;2023-03-03T13:35:06;6.20;99.90
8820;DHT22;4446;50.876;4.736;2023-03-03T13:37:36;6.30;99.90
8820;DHT22;4446;50.876;4.736;2023-03-03T13:40:14;6.30;99.90
8820;DHT22;4446;50.876;4.736;2023-03-03T13:42:46;6.30;99.90
8820;DHT22;4446;50.876;4.736;2023-03-03T13:45:20;6.40;99.90
8820;DHT22;4446;50.876;4.736;2023-03-03T13:47:55;6.40;99.90
8820;DHT22;4446;50.876;4.736;2023-03-03T13:50:31;6.50;99.90
8820;DHT22;4446;50.876;4.736;2023-03-03T13:53:25;6.70;99.90
8820;DHT22;4446;50.876;4.736;2023-03-03T13:55:58;6.90;99.90
8820;DHT22;4446;50.876;4.736;2023-03-03T13:58:32;7.10;99.90
8820;DHT22;4446;50.876;4.736;2023-03-03T14:01:05;7.10;99.90
8820;DHT22;4446;50.876;4.736;2023-03-03T14:03:54;7.10;99.90
8820;DHT22;4446;50.876;4.736;2023-03-03T14:06:26;7.20;99.90
8820;DHT22;4446;50.876;4.736;2023-03-03T14:09:05;7.20;99.90
8820;DHT22;4446;50.876;4.736;2023-03-03T14:11:41;7.10;99.90
8820;DHT22;4446;50.876;4.736;2023-03-03T14:14:23;7.10;99.90
8820;DHT22;4446;50.876;4.736;2023-03-03T14:16:54;7.10;99.90
8820;DHT22;4446;50.876;4.736;2023-03-03T14:19:25;7.40;99.90
8820;DHT22;4446;50.876;4.736;2023-03-03T14:22:14;7.70;99.90
8820;DHT22;4446;50.876;4.736;2023-03-03T14:24:59;7.90;99.90
8820;DHT22;4446;50.876;4.736;2023-03-03T14:27:35;7.70;99.90
8820;DHT22;4446;50.876;4.736;2023-03-03T14:30:26;7.60;99.90
8820;DHT22;4446;50.876;4.736;2023-03-03T14:33:04;7.50;99.90
8820;DHT22;4446;50.876;4.736;2023-03-03T14:35:33;7.40;99.90
8820;DHT22;4446;50.876;4.736;2023-03-03T14:38:02;7.30;99.90
8820;DHT22;4446;50.876;4.736;2023-03-03T14:40:31;7.20;99.90
8820;DHT22;4446;50.876;4.736;2023-03-03T14:43:01;7.00;99.90
8820;DHT22;4446;50.876;4.736;2023-03-03T14:45:32;7.10;99.90
8820;DHT22;4446;50.876;4.736;2023-03-03T14:48:10;7.10;99.90
8820;DHT22;4446;50.876;4.736;2023-03-03T14:50:42;7.10;99.90
8820;DHT22;4446;50.876;4.736;2023-03-03T14:53:22;7.20;99.90
8820;DHT22;4446;50.876;4.736;2023-03-03T14:56:14;7.10;99.90
8820;DHT22;4446;50.876;4.736;2023-03-03T14:58:43;7.20;99.90
8820;DHT22;4446;50.876;4.736;2023-03-03T15:01:21;7.20;99.90
8820;DHT22;4446;50.876;4.736;2023-03-03T15:03:57;7.20;99.90
8820;DHT22;4446;50.876;4.736;2023-03-03T15:06:32;7.30;99.90
8820;DHT22;4446;50.876;4.736;2023-03-03T15:09:28;7.30;99.90
8820;DHT22;4446;50.876;4.736;2023-03-03T15:11:59;7.20;99.90
8820;DHT22;4446;50.876;4.736;2023-03-03T15:14:35;7.20;99.90
8820;DHT22;4446;50.876;4.736;2023-03-03T15:17:19;7.10;99.90
8820;DHT22;4446;50.876;4.736;2023-03-03T15:19:55;7.20;99.90
8820;DHT22;4446;50.876;4.736;2023-03-03T15:22:40;7.20;99.90
8820;DHT22;4446;50.876;4.736;2023-03-03T15:25:13;7.20;99.90
8820;DHT22;4446;50.876;4.736;2023-03-03T15:27:43;7.10;99.90
8820;DHT22;4446;50.876;4.736;2023-03-03T15:30:22;7.10;99.90
8820;DHT22;4446;50.876;4.736;2023-03-03T15:32:57;7.10;99.90
8820;DHT22;4446;50.876;4.736;2023-03-03T15:35:47;7.20;99.90
8820;DHT22;4446;50.876;4.736;2023-03-03T15:38:25;7.10;99.90
8820;DHT22;4446;50.876;4.736;2023-03-03T15:41:03;7.10;99.90
8820;DHT22;4446;50.876;4.736;2023-03-03T15:43:37;7.10;99.90
8820;DHT22;4446;50.876;4.736;2023-03-03T15:46:16;7.10;99.90
8820;DHT22;4446;50.876;4.736;2023-03-03T15:49:00;7.10;99.90
8820;DHT22;4446;50.876;4.736;2023-03-03T15:51:46;7.00;99.90
8820;DHT22;4446;50.876;4.736;2023-03-03T15:54:29;7.00;99.90
8820;DHT22;4446;50.876;4.736;2023-03-03T15:57:04;7.00;99.90
8820;DHT22;4446;50.876;4.736;2023-03-03T16:02:46;7.10;99.90
8820;DHT22;4446;50.876;4.736;2023-03-03T16:05:19;7.20;99.90
8820;DHT22;4446;50.876;4.736;2023-03-03T16:07:55;7.40;99.90
8820;DHT22;4446;50.876;4.736;2023-03-03T16:10:30;7.60;99.90
8820;DHT22;4446;50.876;4.736;2023-03-03T16:13:07;7.70;99.90
8820;DHT22;4446;50.876;4.736;2023-03-03T16:15:45;7.80;99.90
8820;DHT22;4446;50.876;4.736;2023-03-03T16:18:22;7.80;99.90
8820;DHT22;4446;50.876;4.736;2023-03-03T16:21:00;7.80;99.90
8820;DHT22;4446;50.876;4.736;2023-03-03T16:23:33;7.70;99.90
8820;DHT22;4446;50.876;4.736;2023-03-03T16:26:22;7.90;99.90
8820;DHT22;4446;50.876;4.736;2023-03-03T16:29:07;8.20;99.90
8820;DHT22;4446;50.876;4.736;2023-03-03T16:31:42;8.30;99.90
8820;DHT22;4446;50.876;4.736;2023-03-03T16:34:16;8.50;99.90
8820;DHT22;4446;50.876;4.736;2023-03-03T16:36:56;8.60;99.90
8820;DHT22;4446;50.876;4.736;2023-03-03T16:39:38;8.70;99.90
8820;DHT22;4446;50.876;4.736;2023-03-03T16:42:14;8.80;99.90
8820;DHT22;4446;50.876;4.736;2023-03-03T16:44:50;8.60;99.90
8820;DHT22;4446;50.876;4.736;2023-03-03T16:47:32;8.50;99.90
8820;DHT22;4446;50.876;4.736;2023-03-03T16:50:13;8.40;99.90
8820;DHT22;4446;50.876;4.736;2023-03-03T16:52:46;8.10;99.90
8820;DHT22;4446;50.876;4.736;2023-03-03T16:55:16;8.00;99.90
8820;DHT22;4446;50.876;4.736;2023-03-03T16:57:55;7.80;99.90
8820;DHT22;4446;50.876;4.736;2023-03-03T17:00:27;7.60;99.90